Airfield :
LOGIN :

Register | Disclaimer

   EN    FR    IT 

 










Legend :    VFR   Marginal VFR   IFR   Intensive IFR   Very Intensive IFR
Visi :
Ceiling :
>= 8 km
>= 3000ft
5 to 8 km
1000 to 3000 ft
1500m to 5 km
500 to 1000 ft
800 to 1500m
200 to 500 ft
< 800m
< 200 ft
Symbols :   Thunderstorms  Fog  Heavy snow  Heavy precipitations  Wind > 20 kt
SIGMETs :     Misc.  Thunderstorms  Icing  Turbulence  Mountain Waves  Volcanic Ashes






- Airport Elevation : 1300 ft
- IATA code : LIG


LFBL - Limoges

CURRENT METAR :
  • 051930Z AUTO 02012KT 9999 BKN017 BKN027 05/03 Q1036 TEMPO 03015G25KT

EXPIRED METARs :
  • 051900Z AUTO 02012KT 360V060 9999 SCT015 06/03 Q1036 TEMPO 03015G25KT
  • 051830Z AUTO 02012KT 9999 FEW017 SCT040 06/03 Q1036 TEMPO 03015G25KT
  • 051800Z AUTO 36010KT 330V050 9999 BKN019 BKN028 OVC037 07/04 Q1036 TEMPO 03015G25KT
  • 051730Z AUTO 01006KT 9999 BKN025 BKN040 07/02 Q1036 TEMPO 03015G25KT
  • 051700Z AUTO 36006KT 330V040 9999 FEW030 OVC040 07/02 Q1036 TEMPO BKN010

TAF TAF LFBL
Valid from the 05 at 18:00 until the 06 at 18:00 UTC


051700Z 0518/0618 02010KT 9999 BKN030
TEMPO 0518/0524 03015G25KT
TEMPO 0600/0610 BKN010
PROB30
TEMPO 0600/0606 2000 -RADZ OVC005
ATIS : +33 5 55 48 40 37



MET'MAP, your aeronautical weather chart ! - Copyright ORBIFLY December 2007 - Disclaimer

ORBIFLY MET'MAP TEAM :

Programming & Development : Alexandra Zaïnal
Original concept : Baudouin d'Aumeries
Technical & hardware support : Manuel Goepfert
Assistance : Marc-Olivier Méhu




SOURCES & CREDITS :

   NOAA